PWSweather.com
Personal Weather Stations
Station Observations
HELOTES
Helotes Park Terrace, Helotes, TX 78023

Helotes Park TerraceHelotes, TX 78023

Lat: 29.57, Lon: -98.68

Elevation: 1060

Station Type: Ambient Weather WS-1090

Latest ConditionsUpdated 7:20:29 PM CDT Tuesday, Jul 7, 2015
Currently Today's Max Today's Min Today's Average
Temperature 79.2°F26.2°C 89.1°F31.7°C 76.0°F24.4°C 81.2°F27.3°C
Dew Point 74.4°F23.6°C 76.2°F24.6°C 72.2°F22.3°C 74.0°F23.3°C
Winds 4.7 mph NE7.6 kmh NE 10.5 mph ESE16.9 kmh ESE - 5.4 mph 8.7 kmh
Wind Gusts 4.7 mph7.6 kmh 11.0 mph17.7 kmh - -
Humidity 85% 89% 63% 79%
Pressure 29.83 in1010.2 mb 29.93 in1013.5 mb 29.83 in1010.2 mb -
Precipitation - 0.13 in3.3 mm - -
Hour Temp Dew Point Humidity Winds Wind Gusts Pressure Precip Precip Rate Daily Precip Total
07:20 PM 79.2°F26.2°C 74.4°F23.6°C 85% 4.7 mph NE7.6 kmh NE 4.7 mph7.6 kmh 29.83 in1010.2 mb 0.00 in0.0 mm 0.00 in0.0 mm 0.13 in3.3 mm
07:15 PM 79.2°F26.2°C 74.4°F23.6°C 85% 4.7 mph NE7.6 kmh NE 6.5 mph10.5 kmh 29.83 in1010.2 mb 0.03 in0.8 mm 0.00 in0.0 mm 0.13 in3.3 mm
07:10 PM 79.4°F26.3°C 74.5°F23.6°C 85% 3.7 mph E6.0 kmh E 6.7 mph10.8 kmh 29.83 in1010.2 mb 0.10 in2.5 mm 0.00 in0.0 mm 0.13 in3.3 mm
07:05 PM 79.4°F26.3°C 74.5°F23.6°C 85% 6.5 mph SSE10.5 kmh SSE 6.7 mph10.8 kmh 29.83 in1010.2 mb 0.11 in2.8 mm 0.00 in0.0 mm 0.13 in3.3 mm
07:00 PM 79.6°F26.4°C 74.7°F23.7°C 85% 6.7 mph NE10.8 kmh NE 6.7 mph10.8 kmh 29.83 in1010.2 mb 0.11 in2.8 mm 0.00 in0.0 mm 0.13 in3.3 mm
06:55 PM 79.7°F26.5°C 74.9°F23.8°C 85% 3.2 mph E5.1 kmh E 5.6 mph9.0 kmh 29.83 in1010.2 mb 0.11 in2.8 mm 0.00 in0.0 mm 0.13 in3.3 mm
06:50 PM 79.9°F26.6°C 74.7°F23.7°C 84% 5.2 mph SE8.4 kmh SE 5.6 mph9.0 kmh 29.83 in1010.2 mb 0.11 in2.8 mm 0.00 in0.0 mm 0.13 in3.3 mm
06:45 PM 80.1°F26.7°C 74.8°F23.8°C 84% 2.5 mph ENE4.0 kmh ENE 5.4 mph8.7 kmh 29.83 in1010.2 mb 0.11 in2.8 mm 0.00 in0.0 mm 0.13 in3.3 mm
06:40 PM 80.3°F26.8°C 74.7°F23.7°C 83% 3.8 mph SSE6.1 kmh SSE 5.4 mph8.7 kmh 29.83 in1010.2 mb 0.11 in2.8 mm 0.00 in0.0 mm 0.13 in3.3 mm
06:35 PM 80.5°F26.9°C 74.8°F23.8°C 83% 4.0 mph E6.4 kmh E 5.4 mph8.7 kmh 29.83 in1010.2 mb 0.11 in2.8 mm 0.00 in0.0 mm 0.13 in3.3 mm
06:30 PM 80.8°F27.1°C 74.2°F23.4°C 80% 3.4 mph SSW5.5 kmh SSW 4.9 mph7.9 kmh 29.83 in1010.2 mb 0.11 in2.8 mm 0.00 in0.0 mm 0.13 in3.3 mm
06:25 PM 81.0°F27.2°C 74.0°F23.3°C 79% 4.9 mph E7.9 kmh E 4.9 mph7.9 kmh 29.83 in1010.2 mb 0.11 in2.8 mm 0.00 in0.0 mm 0.13 in3.3 mm
06:20 PM 81.7°F27.6°C 73.5°F23.1°C 76% 2.8 mph NNE4.5 kmh NNE 7.4 mph11.9 kmh 29.83 in1010.2 mb 0.11 in2.8 mm 0.36 in9.1 mm 0.13 in3.3 mm
06:15 PM 82.6°F28.1°C 73.4°F23.0°C 74% 3.9 mph NNE6.3 kmh NNE 7.4 mph11.9 kmh 29.84 in1010.5 mb 0.08 in2.0 mm 0.96 in24.4 mm 0.09 in2.3 mm
06:10 PM 85.7°F29.8°C 75.2°F24.0°C 71% 7.4 mph NE11.9 kmh NE 7.4 mph11.9 kmh 29.84 in1010.5 mb 0.00 in0.0 mm 0.00 in0.0 mm 0.02 in0.5 mm
06:05 PM 85.9°F29.9°C 75.1°F23.9°C 70% 4.1 mph NE6.6 kmh NE 4.7 mph7.6 kmh 29.83 in1010.2 mb 0.00 in0.0 mm 0.00 in0.0 mm 0.02 in0.5 mm
06:00 PM 86.0°F30.0°C 74.8°F23.8°C 69% 2.6 mph NE4.2 kmh NE 7.6 mph12.2 kmh 29.83 in1010.2 mb 0.00 in0.0 mm 0.00 in0.0 mm 0.02 in0.5 mm
05:55 PM 86.0°F30.0°C 74.4°F23.6°C 68% 3.4 mph ENE5.5 kmh ENE 7.6 mph12.2 kmh 29.83 in1010.2 mb 0.00 in0.0 mm 0.00 in0.0 mm 0.02 in0.5 mm
05:50 PM 86.0°F30.0°C 74.4°F23.6°C 68% 7.6 mph E12.2 kmh E 7.6 mph12.2 kmh 29.84 in1010.5 mb 0.00 in0.0 mm 0.00 in0.0 mm 0.02 in0.5 mm
05:45 PM 86.0°F30.0°C 73.8°F23.2°C 67% 5.7 mph ENE9.2 kmh ENE 7.8 mph12.6 kmh 29.84 in1010.5 mb 0.00 in0.0 mm 0.00 in0.0 mm 0.02 in0.5 mm
05:40 PM 86.4°F30.2°C 74.2°F23.4°C 67% 6.3 mph ESE10.1 kmh ESE 9.2 mph14.8 kmh 29.84 in1010.5 mb 0.00 in0.0 mm 0.00 in0.0 mm 0.02 in0.5 mm
05:35 PM 86.6°F30.3°C 73.9°F23.3°C 66% 7.8 mph E12.6 kmh E 9.2 mph14.8 kmh 29.84 in1010.5 mb 0.00 in0.0 mm 0.00 in0.0 mm 0.02 in0.5 mm
05:30 PM 86.8°F30.4°C 74.5°F23.6°C 67% 8.8 mph ENE14.2 kmh ENE 9.2 mph14.8 kmh 29.84 in1010.5 mb 0.00 in0.0 mm 0.00 in0.0 mm 0.02 in0.5 mm
05:25 PM 86.8°F30.4°C 74.1°F23.4°C 66% 7.0 mph NE11.3 kmh NE 7.2 mph11.6 kmh 29.84 in1010.5 mb 0.00 in0.0 mm 0.00 in0.0 mm 0.02 in0.5 mm
05:20 PM 87.1°F30.6°C 74.9°F23.8°C 67% 5.8 mph NE9.3 kmh NE 5.8 mph9.3 kmh 29.84 in1010.5 mb 0.00 in0.0 mm 0.00 in0.0 mm 0.02 in0.5 mm
05:15 PM 86.9°F30.5°C 74.3°F23.5°C 66% 4.7 mph ESE7.6 kmh ESE 5.4 mph8.7 kmh 29.84 in1010.5 mb 0.00 in0.0 mm 0.00 in0.0 mm 0.02 in0.5 mm
05:10 PM 87.1°F30.6°C 74.3°F23.5°C 66% 4.8 mph E7.7 kmh E 6.7 mph10.8 kmh 29.84 in1010.5 mb 0.00 in0.0 mm 0.00 in0.0 mm 0.02 in0.5 mm
05:05 PM 87.1°F30.6°C 74.3°F23.5°C 66% 6.6 mph ENE10.6 kmh ENE 6.7 mph10.8 kmh 29.84 in1010.5 mb 0.00 in0.0 mm 0.00 in0.0 mm 0.02 in0.5 mm
05:00 PM 86.9°F30.5°C 73.8°F23.2°C 65% 3.8 mph SE6.1 kmh SE 6.0 mph9.7 kmh 29.84 in1010.5 mb 0.00 in0.0 mm 0.00 in0.0 mm 0.02 in0.5 mm
04:55 PM 87.1°F30.6°C 73.9°F23.3°C 65% 4.9 mph SSW7.9 kmh SSW 8.9 mph14.3 kmh 29.84 in1010.5 mb 0.00 in0.0 mm 0.00 in0.0 mm 0.02 in0.5 mm
04:50 PM 87.3°F30.7°C 74.1°F23.4°C 65% 6.0 mph ESE9.7 kmh ESE 9.2 mph14.8 kmh 29.84 in1010.5 mb 0.00 in0.0 mm 0.00 in0.0 mm 0.02 in0.5 mm
04:45 PM 87.5°F30.8°C 73.8°F23.2°C 64% 8.9 mph SE14.3 kmh SE 11.0 mph17.7 kmh 29.85 in1010.8 mb 0.00 in0.0 mm 0.00 in0.0 mm 0.02 in0.5 mm
04:40 PM 88.0°F31.1°C 74.4°F23.6°C 64% 9.5 mph SE15.3 kmh SE 11.0 mph17.7 kmh 29.85 in1010.8 mb 0.00 in0.0 mm 0.00 in0.0 mm 0.02 in0.5 mm
04:35 PM 88.4°F31.3°C 74.7°F23.7°C 64% 5.3 mph SE8.5 kmh SE 11.0 mph17.7 kmh 29.85 in1010.8 mb 0.00 in0.0 mm 0.00 in0.0 mm 0.02 in0.5 mm
04:30 PM 89.1°F31.7°C 75.3°F24.1°C 64% 2.0 mph ESE3.2 kmh ESE 10.1 mph16.3 kmh 29.85 in1010.8 mb 0.00 in0.0 mm 0.00 in0.0 mm 0.02 in0.5 mm
04:25 PM 89.1°F31.7°C 75.3°F24.1°C 64% 7.7 mph ESE12.4 kmh ESE 10.1 mph16.3 kmh 29.85 in1010.8 mb 0.00 in0.0 mm 0.00 in0.0 mm 0.02 in0.5 mm
04:20 PM 88.9°F31.6°C 75.2°F24.0°C 64% 7.2 mph ENE11.6 kmh ENE 7.2 mph11.6 kmh 29.85 in1010.8 mb 0.00 in0.0 mm 0.00 in0.0 mm 0.02 in0.5 mm
04:15 PM 88.6°F31.4°C 74.9°F23.8°C 64% 4.9 mph ESE7.9 kmh ESE 7.2 mph11.6 kmh 29.85 in1010.8 mb 0.00 in0.0 mm 0.00 in0.0 mm 0.02 in0.5 mm
04:10 PM 88.7°F31.5°C 74.5°F23.6°C 63% 6.6 mph ENE10.6 kmh ENE 7.2 mph11.6 kmh 29.85 in1010.8 mb 0.00 in0.0 mm 0.00 in0.0 mm 0.02 in0.5 mm
04:05 PM 88.9°F31.6°C 75.2°F24.0°C 64% 7.0 mph E11.3 kmh E 8.7 mph14.0 kmh 29.85 in1010.8 mb 0.00 in0.0 mm 0.00 in0.0 mm 0.02 in0.5 mm
04:00 PM 88.2°F31.2°C 75.4°F24.1°C 66% 5.4 mph ESE8.7 kmh ESE 8.7 mph14.0 kmh 29.86 in1011.2 mb 0.00 in0.0 mm 0.00 in0.0 mm 0.02 in0.5 mm
03:55 PM 88.0°F31.1°C 75.3°F24.1°C 66% 8.7 mph SSE14.0 kmh SSE 8.7 mph14.0 kmh 29.86 in1011.2 mb 0.00 in0.0 mm 0.00 in0.0 mm 0.02 in0.5 mm
03:50 PM 88.0°F31.1°C 74.4°F23.6°C 64% 7.6 mph SE12.2 kmh SE 7.6 mph12.2 kmh 29.86 in1011.2 mb 0.00 in0.0 mm 0.00 in0.0 mm 0.02 in0.5 mm
03:45 PM 88.2°F31.2°C 74.5°F23.6°C 64% 4.6 mph E7.4 kmh E 6.3 mph10.1 kmh 29.86 in1011.2 mb 0.00 in0.0 mm 0.00 in0.0 mm 0.02 in0.5 mm
03:40 PM 88.2°F31.2°C 75.4°F24.1°C 66% 5.8 mph SSE9.3 kmh SSE 8.3 mph13.4 kmh 29.86 in1011.2 mb 0.00 in0.0 mm 0.00 in0.0 mm 0.02 in0.5 mm
03:35 PM 88.0°F31.1°C 75.3°F24.1°C 66% 5.4 mph S8.7 kmh S 10.5 mph16.9 kmh 29.86 in1011.2 mb 0.00 in0.0 mm 0.00 in0.0 mm 0.02 in0.5 mm
03:30 PM 88.4°F31.3°C 75.2°F24.0°C 65% 8.3 mph SE13.4 kmh SE 10.5 mph16.9 kmh 29.87 in1011.5 mb 0.00 in0.0 mm 0.00 in0.0 mm 0.02 in0.5 mm
03:25 PM 88.9°F31.6°C 75.6°F24.2°C 65% 10.4 mph ESE16.7 kmh ESE 10.5 mph16.9 kmh 29.87 in1011.5 mb 0.00 in0.0 mm 0.00 in0.0 mm 0.02 in0.5 mm
03:20 PM 88.9°F31.6°C 76.2°F24.6°C 66% 8.1 mph ENE13.0 kmh ENE 9.8 mph15.8 kmh 29.86 in1011.2 mb 0.00 in0.0 mm 0.00 in0.0 mm 0.02 in0.5 mm
03:15 PM 88.6°F31.4°C 76.2°F24.6°C 67% 5.3 mph S8.5 kmh S 9.6 mph15.4 kmh 29.87 in1011.5 mb 0.00 in0.0 mm 0.00 in0.0 mm 0.02 in0.5 mm
03:10 PM 87.8°F31.0°C 75.1°F23.9°C 66% 4.7 mph SSW7.6 kmh SSW 9.6 mph15.4 kmh 29.87 in1011.5 mb 0.00 in0.0 mm 0.00 in0.0 mm 0.02 in0.5 mm
03:05 PM 88.2°F31.2°C 75.4°F24.1°C 66% 9.6 mph S15.4 kmh S 9.6 mph15.4 kmh 29.87 in1011.5 mb 0.00 in0.0 mm 0.00 in0.0 mm 0.02 in0.5 mm
03:00 PM 88.2°F31.2°C 75.9°F24.4°C 67% 2.5 mph ENE4.0 kmh ENE 8.1 mph13.0 kmh 29.87 in1011.5 mb 0.00 in0.0 mm 0.00 in0.0 mm 0.02 in0.5 mm
02:55 PM 88.2°F31.2°C 75.9°F24.4°C 67% 7.5 mph E12.1 kmh E 8.1 mph13.0 kmh 29.87 in1011.5 mb 0.00 in0.0 mm 0.00 in0.0 mm 0.02 in0.5 mm
02:50 PM 88.2°F31.2°C 75.4°F24.1°C 66% 7.6 mph SSE12.2 kmh SSE 10.5 mph16.9 kmh 29.88 in1011.9 mb 0.00 in0.0 mm 0.00 in0.0 mm 0.02 in0.5 mm
02:45 PM 88.2°F31.2°C 75.9°F24.4°C 67% 7.2 mph S11.6 kmh S 10.5 mph16.9 kmh 29.88 in1011.9 mb 0.00 in0.0 mm 0.00 in0.0 mm 0.02 in0.5 mm
02:40 PM 88.0°F31.1°C 75.7°F24.3°C 67% 9.8 mph SE15.8 kmh SE 10.5 mph16.9 kmh 29.88 in1011.9 mb 0.00 in0.0 mm 0.00 in0.0 mm 0.02 in0.5 mm
02:35 PM 87.1°F30.6°C 75.3°F24.1°C 68% 8.5 mph ESE13.7 kmh ESE 8.9 mph14.3 kmh 29.88 in1011.9 mb 0.00 in0.0 mm 0.00 in0.0 mm 0.02 in0.5 mm
02:30 PM 86.8°F30.4°C 75.4°F24.1°C 69% 8.9 mph E14.3 kmh E 8.9 mph14.3 kmh 29.89 in1012.2 mb 0.00 in0.0 mm 0.00 in0.0 mm 0.02 in0.5 mm
02:25 PM 86.6°F30.3°C 75.2°F24.0°C 69% 4.7 mph ESE7.6 kmh ESE 10.5 mph16.9 kmh 29.89 in1012.2 mb 0.00 in0.0 mm 0.00 in0.0 mm 0.02 in0.5 mm
02:20 PM 86.8°F30.4°C 75.4°F24.1°C 69% 5.4 mph ESE8.7 kmh ESE 10.5 mph16.9 kmh 29.89 in1012.2 mb 0.00 in0.0 mm 0.00 in0.0 mm 0.02 in0.5 mm
02:15 PM 86.6°F30.3°C 75.2°F24.0°C 69% 10.3 mph E16.6 kmh E 10.5 mph16.9 kmh 29.89 in1012.2 mb 0.00 in0.0 mm 0.00 in0.0 mm 0.02 in0.5 mm
02:10 PM 86.6°F30.3°C 74.8°F23.8°C 68% 7.8 mph SE12.6 kmh SE 10.1 mph16.3 kmh 29.89 in1012.2 mb 0.00 in0.0 mm 0.00 in0.0 mm 0.02 in0.5 mm
02:05 PM 87.1°F30.6°C 76.2°F24.6°C 70% 5.6 mph SE9.0 kmh SE 5.6 mph9.0 kmh 29.89 in1012.2 mb 0.00 in0.0 mm 0.00 in0.0 mm 0.02 in0.5 mm
02:00 PM 87.1°F30.6°C 76.2°F24.6°C 70% 5.1 mph ESE8.2 kmh ESE 7.4 mph11.9 kmh 29.89 in1012.2 mb 0.00 in0.0 mm 0.00 in0.0 mm 0.02 in0.5 mm
01:55 PM 87.1°F30.6°C 75.3°F24.1°C 68% 5.9 mph E9.5 kmh E 10.5 mph16.9 kmh 29.89 in1012.2 mb 0.00 in0.0 mm 0.00 in0.0 mm 0.02 in0.5 mm
01:50 PM 87.1°F30.6°C 75.3°F24.1°C 68% 7.4 mph ESE11.9 kmh ESE 10.5 mph16.9 kmh 29.89 in1012.2 mb 0.00 in0.0 mm 0.00 in0.0 mm 0.02 in0.5 mm
01:45 PM 87.1°F30.6°C 75.3°F24.1°C 68% 10.5 mph ESE16.9 kmh ESE 10.5 mph16.9 kmh 29.89 in1012.2 mb 0.00 in0.0 mm 0.00 in0.0 mm 0.02 in0.5 mm
01:40 PM 86.9°F30.5°C 75.6°F24.2°C 69% 5.9 mph NE9.5 kmh NE 9.8 mph15.8 kmh 29.89 in1012.2 mb 0.00 in0.0 mm 0.00 in0.0 mm 0.02 in0.5 mm
01:35 PM 86.8°F30.4°C 75.4°F24.1°C 69% 9.1 mph ESE14.6 kmh ESE 9.8 mph15.8 kmh 29.90 in1012.5 mb 0.00 in0.0 mm 0.00 in0.0 mm 0.02 in0.5 mm
01:30 PM 86.6°F30.3°C 75.7°F24.3°C 70% 6.3 mph ESE10.1 kmh ESE 7.8 mph12.6 kmh 29.90 in1012.5 mb 0.00 in0.0 mm 0.00 in0.0 mm 0.02 in0.5 mm
01:25 PM 86.4°F30.2°C 75.6°F24.2°C 70% 7.4 mph SE11.9 kmh SE 7.8 mph12.6 kmh 29.90 in1012.5 mb 0.00 in0.0 mm 0.00 in0.0 mm 0.02 in0.5 mm
01:20 PM 86.0°F30.0°C 75.6°F24.2°C 71% 4.3 mph SE6.9 kmh SE 6.0 mph9.7 kmh 29.90 in1012.5 mb 0.00 in0.0 mm 0.00 in0.0 mm 0.02 in0.5 mm
01:15 PM 86.0°F30.0°C 75.6°F24.2°C 71% 6.0 mph SE9.7 kmh SE 7.2 mph11.6 kmh 29.90 in1012.5 mb 0.00 in0.0 mm 0.00 in0.0 mm 0.02 in0.5 mm
01:10 PM 86.0°F30.0°C 75.6°F24.2°C 71% 4.7 mph SE7.6 kmh SE 8.3 mph13.4 kmh 29.90 in1012.5 mb 0.00 in0.0 mm 0.00 in0.0 mm 0.02 in0.5 mm
01:05 PM 86.0°F30.0°C 76.1°F24.5°C 72% 7.6 mph E12.2 kmh E 8.3 mph13.4 kmh 29.90 in1012.5 mb 0.00 in0.0 mm 0.00 in0.0 mm 0.02 in0.5 mm
01:00 PM 85.1°F29.5°C 75.5°F24.2°C 73% 6.3 mph SE10.1 kmh SE 6.3 mph10.1 kmh 29.91 in1012.9 mb 0.00 in0.0 mm 0.00 in0.0 mm 0.02 in0.5 mm
12:55 PM 85.0°F29.4°C 75.3°F24.1°C 73% 3.4 mph E5.5 kmh E 8.9 mph14.3 kmh 29.91 in1012.9 mb 0.00 in0.0 mm 0.00 in0.0 mm 0.02 in0.5 mm
12:49 PM 85.0°F29.4°C 75.3°F24.1°C 73% 6.8 mph SSE10.9 kmh SSE 8.9 mph14.3 kmh 29.91 in1012.9 mb 0.00 in0.0 mm 0.00 in0.0 mm 0.02 in0.5 mm
12:44 PM 84.8°F29.3°C 75.2°F24.0°C 73% 4.0 mph S6.4 kmh S 8.5 mph13.7 kmh 29.91 in1012.9 mb 0.00 in0.0 mm 0.00 in0.0 mm 0.02 in0.5 mm
12:39 PM 84.6°F29.2°C 75.4°F24.1°C 74% 8.5 mph SE13.7 kmh SE 8.5 mph13.7 kmh 29.92 in1013.2 mb 0.00 in0.0 mm 0.00 in0.0 mm 0.02 in0.5 mm
12:34 PM 84.4°F29.1°C 75.6°F24.2°C 75% 5.1 mph S8.2 kmh S 6.3 mph10.1 kmh 29.92 in1013.2 mb 0.00 in0.0 mm 0.00 in0.0 mm 0.02 in0.5 mm
12:29 PM 84.2°F29.0°C 75.4°F24.1°C 75% 4.0 mph ENE6.4 kmh ENE 6.3 mph10.1 kmh 29.92 in1013.2 mb 0.00 in0.0 mm 0.00 in0.0 mm 0.02 in0.5 mm
12:24 PM 84.1°F28.9°C 75.2°F24.0°C 75% 4.4 mph E7.1 kmh E 6.0 mph9.7 kmh 29.92 in1013.2 mb 0.00 in0.0 mm 0.00 in0.0 mm 0.02 in0.5 mm
12:19 PM 84.1°F28.9°C 75.2°F24.0°C 75% 5.0 mph SSE8.0 kmh SSE 6.0 mph9.7 kmh 29.92 in1013.2 mb 0.00 in0.0 mm 0.00 in0.0 mm 0.02 in0.5 mm
12:14 PM 83.9°F28.8°C 75.1°F23.9°C 75% 6.0 mph SSE9.7 kmh SSE 9.4 mph15.1 kmh 29.92 in1013.2 mb 0.00 in0.0 mm 0.00 in0.0 mm 0.02 in0.5 mm
12:09 PM 83.5°F28.6°C 74.4°F23.6°C 74% 3.1 mph ESE5.0 kmh ESE 9.4 mph15.1 kmh 29.92 in1013.2 mb 0.00 in0.0 mm 0.00 in0.0 mm 0.02 in0.5 mm
12:04 PM 83.5°F28.6°C 74.7°F23.7°C 75% 6.9 mph SE11.1 kmh SE 9.4 mph15.1 kmh 29.93 in1013.5 mb 0.00 in0.0 mm 0.00 in0.0 mm 0.02 in0.5 mm
11:59 AM 83.2°F28.4°C 74.4°F23.6°C 75% 8.3 mph SE13.4 kmh SE 8.3 mph13.4 kmh 29.93 in1013.5 mb 0.00 in0.0 mm 0.00 in0.0 mm 0.02 in0.5 mm
11:54 AM 83.2°F28.4°C 74.4°F23.6°C 75% 4.0 mph SSE6.4 kmh SSE 8.1 mph13.0 kmh 29.92 in1013.2 mb 0.00 in0.0 mm 0.00 in0.0 mm 0.02 in0.5 mm
11:49 AM 83.0°F28.3°C 74.3°F23.5°C 75% 7.9 mph SE12.7 kmh SE 10.3 mph16.6 kmh 29.92 in1013.2 mb 0.00 in0.0 mm 0.00 in0.0 mm 0.02 in0.5 mm
11:44 AM 82.8°F28.2°C 74.4°F23.6°C 76% 4.6 mph E7.4 kmh E 10.3 mph16.6 kmh 29.92 in1013.2 mb 0.00 in0.0 mm 0.00 in0.0 mm 0.02 in0.5 mm
11:39 AM 82.6°F28.1°C 74.3°F23.5°C 76% 10.3 mph SE16.6 kmh SE 10.3 mph16.6 kmh 29.92 in1013.2 mb 0.00 in0.0 mm 0.00 in0.0 mm 0.02 in0.5 mm
11:34 AM 82.4°F28.0°C 74.5°F23.6°C 77% 5.0 mph ENE8.0 kmh ENE 8.7 mph14.0 kmh 29.93 in1013.5 mb 0.00 in0.0 mm 0.00 in0.0 mm 0.02 in0.5 mm
11:29 AM 82.3°F27.9°C 74.8°F23.8°C 78% 6.2 mph E10.0 kmh E 8.7 mph14.0 kmh 29.93 in1013.5 mb 0.00 in0.0 mm 0.00 in0.0 mm 0.02 in0.5 mm
11:24 AM 82.3°F27.9°C 74.0°F23.3°C 76% 5.6 mph SE9.0 kmh SE 7.8 mph12.6 kmh 29.93 in1013.5 mb 0.00 in0.0 mm 0.00 in0.0 mm 0.02 in0.5 mm
11:19 AM 82.3°F27.9°C 74.3°F23.5°C 77% 5.8 mph SE9.3 kmh SE 7.8 mph12.6 kmh 29.92 in1013.2 mb 0.00 in0.0 mm 0.00 in0.0 mm 0.02 in0.5 mm
11:14 AM 82.3°F27.9°C 74.3°F23.5°C 77% 7.5 mph ESE12.1 kmh ESE 7.8 mph12.6 kmh 29.92 in1013.2 mb 0.00 in0.0 mm 0.00 in0.0 mm 0.02 in0.5 mm
11:09 AM 82.3°F27.9°C 74.0°F23.3°C 76% 7.4 mph SE11.9 kmh SE 8.5 mph13.7 kmh 29.92 in1013.2 mb 0.00 in0.0 mm 0.00 in0.0 mm 0.02 in0.5 mm
11:04 AM 82.8°F28.2°C 74.4°F23.6°C 76% 6.5 mph SSW10.5 kmh SSW 8.5 mph13.7 kmh 29.93 in1013.5 mb 0.00 in0.0 mm 0.00 in0.0 mm 0.02 in0.5 mm
10:59 AM 82.8°F28.2°C 74.9°F23.8°C 77% 8.5 mph S13.7 kmh S 8.5 mph13.7 kmh 29.93 in1013.5 mb 0.00 in0.0 mm 0.00 in0.0 mm 0.02 in0.5 mm
10:54 AM 83.0°F28.3°C 75.1°F23.9°C 77% 6.6 mph E10.6 kmh E 6.9 mph11.1 kmh 29.93 in1013.5 mb 0.00 in0.0 mm 0.00 in0.0 mm 0.02 in0.5 mm
10:49 AM 82.4°F28.0°C 75.0°F23.9°C 78% 4.7 mph SE7.6 kmh SE 6.9 mph11.1 kmh 29.92 in1013.2 mb 0.00 in0.0 mm 0.00 in0.0 mm 0.02 in0.5 mm
10:44 AM 82.3°F27.9°C 75.2°F24.0°C 79% 6.9 mph ESE11.1 kmh ESE 10.3 mph16.6 kmh 29.92 in1013.2 mb 0.00 in0.0 mm 0.00 in0.0 mm 0.02 in0.5 mm
10:39 AM 81.9°F27.7°C 75.2°F24.0°C 80% 7.7 mph SE12.4 kmh SE 10.3 mph16.6 kmh 29.92 in1013.2 mb 0.00 in0.0 mm 0.00 in0.0 mm 0.02 in0.5 mm
10:34 AM 81.5°F27.5°C 74.4°F23.6°C 79% 7.0 mph E11.3 kmh E 10.3 mph16.6 kmh 29.92 in1013.2 mb 0.00 in0.0 mm 0.00 in0.0 mm 0.02 in0.5 mm
10:29 AM 81.2°F27.3°C 74.2°F23.4°C 79% 6.5 mph S10.5 kmh S 7.6 mph12.2 kmh 29.92 in1013.2 mb 0.00 in0.0 mm 0.00 in0.0 mm 0.02 in0.5 mm
10:24 AM 81.0°F27.2°C 74.0°F23.3°C 79% 7.4 mph E11.9 kmh E 7.6 mph12.2 kmh 29.93 in1013.5 mb 0.00 in0.0 mm 0.00 in0.0 mm 0.02 in0.5 mm
10:19 AM 81.0°F27.2°C 74.3°F23.5°C 80% 7.2 mph SSE11.6 kmh SSE 7.6 mph12.2 kmh 29.93 in1013.5 mb 0.00 in0.0 mm 0.00 in0.0 mm 0.02 in0.5 mm
10:14 AM 80.6°F27.0°C 74.0°F23.3°C 80% 6.5 mph E10.5 kmh E 6.5 mph10.5 kmh 29.93 in1013.5 mb 0.00 in0.0 mm 0.00 in0.0 mm 0.02 in0.5 mm
10:09 AM 80.6°F27.0°C 74.4°F23.6°C 81% 6.0 mph E9.7 kmh E 6.3 mph10.1 kmh 29.93 in1013.5 mb 0.00 in0.0 mm 0.00 in0.0 mm 0.02 in0.5 mm
10:04 AM 80.3°F26.8°C 74.0°F23.3°C 81% 4.6 mph SE7.4 kmh SE 8.9 mph14.3 kmh 29.93 in1013.5 mb 0.00 in0.0 mm 0.00 in0.0 mm 0.02 in0.5 mm
09:59 AM 80.1°F26.7°C 74.2°F23.4°C 82% 8.3 mph E13.4 kmh E 8.9 mph14.3 kmh 29.93 in1013.5 mb 0.01 in0.3 mm 0.00 in0.0 mm 0.02 in0.5 mm
09:54 AM 79.9°F26.6°C 74.0°F23.3°C 82% 2.5 mph SE4.0 kmh SE 7.6 mph12.2 kmh 29.93 in1013.5 mb 0.01 in0.3 mm 0.00 in0.0 mm 0.02 in0.5 mm
09:49 AM 79.7°F26.5°C 74.2°F23.4°C 83% 5.1 mph ESE8.2 kmh ESE 7.6 mph12.2 kmh 29.92 in1013.2 mb 0.01 in0.3 mm 0.00 in0.0 mm 0.02 in0.5 mm
09:44 AM 79.7°F26.5°C 74.2°F23.4°C 83% 7.1 mph SE11.4 kmh SE 9.2 mph14.8 kmh 29.92 in1013.2 mb 0.01 in0.3 mm 0.00 in0.0 mm 0.02 in0.5 mm
09:39 AM 79.4°F26.3°C 74.2°F23.4°C 84% 9.1 mph E14.6 kmh E 9.2 mph14.8 kmh 29.92 in1013.2 mb 0.01 in0.3 mm 0.00 in0.0 mm 0.02 in0.5 mm
09:34 AM 78.8°F26.0°C 74.0°F23.3°C 85% 7.6 mph NE12.2 kmh NE 7.6 mph12.2 kmh 29.92 in1013.2 mb 0.01 in0.3 mm 0.00 in0.0 mm 0.02 in0.5 mm
09:29 AM 78.7°F25.9°C 73.8°F23.2°C 85% 6.8 mph ESE10.9 kmh ESE 7.6 mph12.2 kmh 29.92 in1013.2 mb 0.01 in0.3 mm 0.00 in0.0 mm 0.02 in0.5 mm
09:24 AM 78.3°F25.7°C 73.4°F23.0°C 85% 5.0 mph NE8.0 kmh NE 7.6 mph12.2 kmh 29.92 in1013.2 mb 0.01 in0.3 mm 0.00 in0.0 mm 0.02 in0.5 mm
09:19 AM 78.1°F25.6°C 73.3°F22.9°C 85% 5.4 mph E8.7 kmh E 6.5 mph10.5 kmh 29.92 in1013.2 mb 0.01 in0.3 mm 0.00 in0.0 mm 0.02 in0.5 mm
09:14 AM 77.9°F25.5°C 73.4°F23.0°C 86% 6.5 mph NNE10.5 kmh NNE 6.5 mph10.5 kmh 29.92 in1013.2 mb 0.01 in0.3 mm 0.00 in0.0 mm 0.02 in0.5 mm
09:09 AM 77.8°F25.4°C 73.3°F22.9°C 86% 3.5 mph ESE5.6 kmh ESE 6.5 mph10.5 kmh 29.92 in1013.2 mb 0.01 in0.3 mm 0.00 in0.0 mm 0.02 in0.5 mm
09:04 AM 77.6°F25.3°C 73.1°F22.8°C 86% 6.2 mph ESE10.0 kmh ESE 6.5 mph10.5 kmh 29.92 in1013.2 mb 0.01 in0.3 mm 0.01 in0.3 mm 0.02 in0.5 mm
08:59 AM 77.4°F25.2°C 73.3°F22.9°C 87% 3.6 mph E5.8 kmh E 7.6 mph12.2 kmh 29.92 in1013.2 mb 0.00 in0.0 mm 0.00 in0.0 mm 0.00 in0.0 mm
08:54 AM 77.4°F25.2°C 73.3°F22.9°C 87% 3.6 mph E5.8 kmh E 7.6 mph12.2 kmh 29.91 in1012.9 mb 0.00 in0.0 mm 0.00 in0.0 mm 0.00 in0.0 mm
08:49 AM 77.4°F25.2°C 73.3°F22.9°C 87% 4.6 mph SE7.4 kmh SE 7.6 mph12.2 kmh 29.91 in1012.9 mb 0.00 in0.0 mm 0.00 in0.0 mm 0.00 in0.0 mm
08:44 AM 77.2°F25.1°C 73.4°F23.0°C 88% 4.5 mph E7.2 kmh E 6.9 mph11.1 kmh 29.91 in1012.9 mb 0.00 in0.0 mm 0.00 in0.0 mm 0.00 in0.0 mm
08:39 AM 77.2°F25.1°C 73.4°F23.0°C 88% 3.1 mph ESE5.0 kmh ESE 6.9 mph11.1 kmh 29.91 in1012.9 mb 0.00 in0.0 mm 0.00 in0.0 mm 0.00 in0.0 mm
08:34 AM 77.0°F25.0°C 73.3°F22.9°C 88% 4.8 mph E7.7 kmh E 7.2 mph11.6 kmh 29.91 in1012.9 mb 0.00 in0.0 mm 0.00 in0.0 mm 0.00 in0.0 mm
08:29 AM 76.9°F24.9°C 73.1°F22.8°C 88% 6.6 mph SSW10.6 kmh SSW 7.2 mph11.6 kmh 29.91 in1012.9 mb 0.00 in0.0 mm 0.00 in0.0 mm 0.00 in0.0 mm
08:24 AM 76.7°F24.8°C 72.9°F22.7°C 88% 4.3 mph ESE6.9 kmh ESE 4.3 mph6.9 kmh 29.91 in1012.9 mb 0.00 in0.0 mm 0.00 in0.0 mm 0.00 in0.0 mm
08:19 AM 76.7°F24.8°C 73.3°F22.9°C 89% 3.1 mph E5.0 kmh E 5.6 mph9.0 kmh 29.91 in1012.9 mb 0.00 in0.0 mm 0.00 in0.0 mm 0.00 in0.0 mm
08:14 AM 76.5°F24.7°C 73.1°F22.8°C 89% 2.8 mph ENE4.5 kmh ENE 5.6 mph9.0 kmh 29.91 in1012.9 mb 0.00 in0.0 mm 0.00 in0.0 mm 0.00 in0.0 mm
08:09 AM 76.3°F24.6°C 72.9°F22.7°C 89% 4.4 mph SE7.1 kmh SE 5.6 mph9.0 kmh 29.91 in1012.9 mb 0.00 in0.0 mm 0.00 in0.0 mm 0.00 in0.0 mm
08:04 AM 76.3°F24.6°C 72.9°F22.7°C 89% 4.0 mph 6.4 kmh 5.4 mph8.7 kmh 29.91 in1012.9 mb 0.00 in0.0 mm 0.00 in0.0 mm 0.00 in0.0 mm
07:59 AM 76.3°F24.6°C 72.9°F22.7°C 89% 5.4 mph NNE8.7 kmh NNE 5.4 mph8.7 kmh 29.91 in1012.9 mb 0.00 in0.0 mm 0.00 in0.0 mm 0.00 in0.0 mm
07:54 AM 76.1°F24.5°C 72.7°F22.6°C 89% 2.1 mph E3.4 kmh E 4.9 mph7.9 kmh 29.90 in1012.5 mb 0.00 in0.0 mm 0.00 in0.0 mm 0.00 in0.0 mm
07:49 AM 76.1°F24.5°C 72.7°F22.6°C 89% 4.4 mph E7.1 kmh E 4.9 mph7.9 kmh 29.90 in1012.5 mb 0.00 in0.0 mm 0.00 in0.0 mm 0.00 in0.0 mm
07:44 AM 76.1°F24.5°C 72.7°F22.6°C 89% 1.1 mph ESE1.8 kmh ESE 4.3 mph6.9 kmh 29.90 in1012.5 mb 0.00 in0.0 mm 0.00 in0.0 mm 0.00 in0.0 mm
07:39 AM 76.0°F24.4°C 72.5°F22.5°C 89% 4.2 mph SE6.8 kmh SE 4.3 mph6.9 kmh 29.91 in1012.9 mb 0.00 in0.0 mm 0.00 in0.0 mm 0.00 in0.0 mm
07:34 AM 76.1°F24.5°C 72.7°F22.6°C 89% 2.0 mph E3.2 kmh E 4.0 mph6.4 kmh 29.90 in1012.5 mb 0.00 in0.0 mm 0.00 in0.0 mm 0.00 in0.0 mm
07:29 AM 76.0°F24.4°C 72.5°F22.5°C 89% 3.6 mph SE5.8 kmh SE 6.0 mph9.7 kmh 29.91 in1012.9 mb 0.00 in0.0 mm 0.00 in0.0 mm 0.00 in0.0 mm
07:24 AM 76.0°F24.4°C 72.2°F22.3°C 88% 4.0 mph SE6.4 kmh SE 6.5 mph10.5 kmh 29.91 in1012.9 mb 0.00 in0.0 mm 0.00 in0.0 mm 0.00 in0.0 mm
07:19 AM 76.0°F24.4°C 72.2°F22.3°C 88% 6.1 mph E9.8 kmh E 6.5 mph10.5 kmh 29.91 in1012.9 mb 0.00 in0.0 mm 0.00 in0.0 mm 0.00 in0.0 mm
07:14 AM 76.0°F24.4°C 72.2°F22.3°C 88% 5.3 mph ESE8.5 kmh ESE 6.5 mph10.5 kmh 29.91 in1012.9 mb 0.00 in0.0 mm 0.00 in0.0 mm 0.00 in0.0 mm
07:09 AM 76.0°F24.4°C 72.2°F22.3°C 88% 2.7 mph NE4.3 kmh NE 6.9 mph11.1 kmh 29.90 in1012.5 mb 0.00 in0.0 mm 0.00 in0.0 mm 0.00 in0.0 mm
07:04 AM 76.0°F24.4°C 72.2°F22.3°C 88% 4.5 mph E7.2 kmh E 6.9 mph11.1 kmh 29.90 in1012.5 mb 0.00 in0.0 mm 0.00 in0.0 mm 0.00 in0.0 mm
06:59 AM 76.0°F24.4°C 72.2°F22.3°C 88% 6.3 mph E10.1 kmh E 6.9 mph11.1 kmh 29.91 in1012.9 mb 0.00 in0.0 mm 0.00 in0.0 mm 0.00 in0.0 mm
06:54 AM 76.0°F24.4°C 72.2°F22.3°C 88% 4.7 mph E7.6 kmh E 4.7 mph7.6 kmh 29.91 in1012.9 mb 0.00 in0.0 mm 0.00 in0.0 mm 0.00 in0.0 mm
06:49 AM 76.1°F24.5°C 72.4°F22.4°C 88% 3.4 mph ESE5.5 kmh ESE 4.7 mph7.6 kmh 29.90 in1012.5 mb 0.00 in0.0 mm 0.00 in0.0 mm 0.00 in0.0 mm
06:44 AM 76.1°F24.5°C 72.4°F22.4°C 88% 3.2 mph E5.1 kmh E 6.3 mph10.1 kmh 29.90 in1012.5 mb 0.00 in0.0 mm 0.00 in0.0 mm 0.00 in0.0 mm
06:39 AM 76.1°F24.5°C 72.4°F22.4°C 88% 5.4 mph ESE8.7 kmh ESE 6.3 mph10.1 kmh 29.90 in1012.5 mb 0.00 in0.0 mm 0.00 in0.0 mm 0.00 in0.0 mm
06:34 AM 76.3°F24.6°C 72.5°F22.5°C 88% 3.1 mph E5.0 kmh E 3.8 mph6.1 kmh 29.90 in1012.5 mb 0.00 in0.0 mm 0.00 in0.0 mm 0.00 in0.0 mm
06:29 AM 76.3°F24.6°C 72.5°F22.5°C 88% 3.4 mph E5.5 kmh E 5.1 mph8.2 kmh 29.90 in1012.5 mb 0.00 in0.0 mm 0.00 in0.0 mm 0.00 in0.0 mm
06:24 AM 76.3°F24.6°C 72.5°F22.5°C 88% 3.9 mph ESE6.3 kmh ESE 5.1 mph8.2 kmh 29.90 in1012.5 mb 0.00 in0.0 mm 0.00 in0.0 mm 0.00 in0.0 mm
06:19 AM 76.3°F24.6°C 72.5°F22.5°C 88% 3.5 mph ESE5.6 kmh ESE 5.1 mph8.2 kmh 29.90 in1012.5 mb 0.00 in0.0 mm 0.00 in0.0 mm 0.00 in0.0 mm
06:14 AM 76.3°F24.6°C 72.5°F22.5°C 88% 3.6 mph E5.8 kmh E 3.6 mph5.8 kmh 29.89 in1012.2 mb 0.00 in0.0 mm 0.00 in0.0 mm 0.00 in0.0 mm
06:09 AM 76.3°F24.6°C 72.5°F22.5°C 88% 2.9 mph SE4.7 kmh SE 2.9 mph4.7 kmh 29.89 in1012.2 mb 0.00 in0.0 mm 0.00 in0.0 mm 0.00 in0.0 mm
06:04 AM 76.3°F24.6°C 72.5°F22.5°C 88% 2.0 mph SE3.2 kmh SE 7.4 mph11.9 kmh 29.89 in1012.2 mb 0.00 in0.0 mm 0.00 in0.0 mm 0.00 in0.0 mm
05:59 AM 76.3°F24.6°C 72.5°F22.5°C 88% 6.1 mph SE9.8 kmh SE 7.4 mph11.9 kmh 29.89 in1012.2 mb 0.00 in0.0 mm 0.00 in0.0 mm 0.00 in0.0 mm
05:54 AM 76.5°F24.7°C 72.7°F22.6°C 88% 7.4 mph ENE11.9 kmh ENE 7.4 mph11.9 kmh 29.89 in1012.2 mb 0.00 in0.0 mm 0.00 in0.0 mm 0.00 in0.0 mm
05:49 AM 76.5°F24.7°C 72.7°F22.6°C 88% 4.7 mph SE7.6 kmh SE 5.4 mph8.7 kmh 29.89 in1012.2 mb 0.00 in0.0 mm 0.00 in0.0 mm 0.00 in0.0 mm
05:44 AM 76.5°F24.7°C 72.7°F22.6°C 88% 5.1 mph ESE8.2 kmh ESE 6.3 mph10.1 kmh 29.89 in1012.2 mb 0.00 in0.0 mm 0.00 in0.0 mm 0.00 in0.0 mm
05:39 AM 76.5°F24.7°C 72.7°F22.6°C 88% 4.7 mph ENE7.6 kmh ENE 6.9 mph11.1 kmh 29.89 in1012.2 mb 0.00 in0.0 mm 0.00 in0.0 mm 0.00 in0.0 mm
05:34 AM 76.5°F24.7°C 72.7°F22.6°C 88% 6.3 mph SSE10.1 kmh SSE 6.9 mph11.1 kmh 29.88 in1011.9 mb 0.00 in0.0 mm 0.00 in0.0 mm 0.00 in0.0 mm
05:29 AM 76.5°F24.7°C 72.4°F22.4°C 87% 6.7 mph E10.8 kmh E 6.9 mph11.1 kmh 29.88 in1011.9 mb 0.00 in0.0 mm 0.00 in0.0 mm 0.00 in0.0 mm
05:24 AM 76.7°F24.8°C 72.5°F22.5°C 87% 5.0 mph SE8.0 kmh SE 6.3 mph10.1 kmh 29.88 in1011.9 mb 0.00 in0.0 mm 0.00 in0.0 mm 0.00 in0.0 mm
05:19 AM 76.7°F24.8°C 72.5°F22.5°C 87% 3.6 mph ESE5.8 kmh ESE 4.9 mph7.9 kmh 29.88 in1011.9 mb 0.00 in0.0 mm 0.00 in0.0 mm 0.00 in0.0 mm
05:14 AM 76.7°F24.8°C 72.5°F22.5°C 87% 4.9 mph NNE7.9 kmh NNE 5.1 mph8.2 kmh 29.88 in1011.9 mb 0.00 in0.0 mm 0.00 in0.0 mm 0.00 in0.0 mm
05:09 AM 76.7°F24.8°C 72.5°F22.5°C 87% 1.2 mph ENE1.9 kmh ENE 8.1 mph13.0 kmh 29.88 in1011.9 mb 0.00 in0.0 mm 0.00 in0.0 mm 0.00 in0.0 mm
05:04 AM 76.7°F24.8°C 72.5°F22.5°C 87% 5.1 mph NE8.2 kmh NE 8.1 mph13.0 kmh 29.88 in1011.9 mb 0.00 in0.0 mm 0.00 in0.0 mm 0.00 in0.0 mm
04:59 AM 76.7°F24.8°C 72.5°F22.5°C 87% 8.1 mph ESE13.0 kmh ESE 8.1 mph13.0 kmh 29.88 in1011.9 mb 0.00 in0.0 mm 0.00 in0.0 mm 0.00 in0.0 mm
04:54 AM 76.7°F24.8°C 72.5°F22.5°C 87% 2.5 mph SE4.0 kmh SE 7.8 mph12.6 kmh 29.88 in1011.9 mb 0.00 in0.0 mm 0.00 in0.0 mm 0.00 in0.0 mm
04:49 AM 76.7°F24.8°C 72.5°F22.5°C 87% 6.0 mph ESE9.7 kmh ESE 7.8 mph12.6 kmh 29.88 in1011.9 mb 0.00 in0.0 mm 0.00 in0.0 mm 0.00 in0.0 mm
04:44 AM 76.9°F24.9°C 72.7°F22.6°C 87% 7.8 mph ESE12.6 kmh ESE 7.8 mph12.6 kmh 29.87 in1011.5 mb 0.00 in0.0 mm 0.00 in0.0 mm 0.00 in0.0 mm
04:39 AM 76.9°F24.9°C 72.7°F22.6°C 87% 3.4 mph NNW5.5 kmh NNW 7.6 mph12.2 kmh 29.88 in1011.9 mb 0.00 in0.0 mm 0.00 in0.0 mm 0.00 in0.0 mm
04:34 AM 77.0°F25.0°C 72.9°F22.7°C 87% 7.1 mph E11.4 kmh E 7.6 mph12.2 kmh 29.88 in1011.9 mb 0.00 in0.0 mm 0.00 in0.0 mm 0.00 in0.0 mm
04:29 AM 77.0°F25.0°C 72.9°F22.7°C 87% 4.3 mph ENE6.9 kmh ENE 5.6 mph9.0 kmh 29.88 in1011.9 mb 0.00 in0.0 mm 0.00 in0.0 mm 0.00 in0.0 mm
04:24 AM 77.2°F25.1°C 73.1°F22.8°C 87% 3.4 mph SE5.5 kmh SE 5.6 mph9.0 kmh 29.88 in1011.9 mb 0.00 in0.0 mm 0.00 in0.0 mm 0.00 in0.0 mm
04:19 AM 77.2°F25.1°C 73.1°F22.8°C 87% 5.3 mph ESE8.5 kmh ESE 5.6 mph9.0 kmh 29.88 in1011.9 mb 0.00 in0.0 mm 0.00 in0.0 mm 0.00 in0.0 mm
04:14 AM 77.2°F25.1°C 72.7°F22.6°C 86% 2.6 mph E4.2 kmh E 4.9 mph7.9 kmh 29.88 in1011.9 mb 0.00 in0.0 mm 0.00 in0.0 mm 0.00 in0.0 mm
04:09 AM 77.4°F25.2°C 72.9°F22.7°C 86% 4.9 mph SE7.9 kmh SE 5.6 mph9.0 kmh 29.88 in1011.9 mb 0.00 in0.0 mm 0.00 in0.0 mm 0.00 in0.0 mm
04:04 AM 77.4°F25.2°C 72.9°F22.7°C 86% 4.3 mph ESE6.9 kmh ESE 7.6 mph12.2 kmh 29.88 in1011.9 mb 0.00 in0.0 mm 0.00 in0.0 mm 0.00 in0.0 mm
03:59 AM 77.4°F25.2°C 72.9°F22.7°C 86% 6.5 mph ENE10.5 kmh ENE 7.6 mph12.2 kmh 29.88 in1011.9 mb 0.00 in0.0 mm 0.00 in0.0 mm 0.00 in0.0 mm
03:54 AM 77.6°F25.3°C 73.1°F22.8°C 86% 5.9 mph SE9.5 kmh SE 8.5 mph13.7 kmh 29.89 in1012.2 mb 0.00 in0.0 mm 0.00 in0.0 mm 0.00 in0.0 mm
03:49 AM 77.6°F25.3°C 73.1°F22.8°C 86% 5.6 mph SE9.0 kmh SE 8.5 mph13.7 kmh 29.89 in1012.2 mb 0.00 in0.0 mm 0.00 in0.0 mm 0.00 in0.0 mm
03:44 AM 77.6°F25.3°C 73.1°F22.8°C 86% 8.5 mph E13.7 kmh E 8.5 mph13.7 kmh 29.89 in1012.2 mb 0.00 in0.0 mm 0.00 in0.0 mm 0.00 in0.0 mm
03:39 AM 77.6°F25.3°C 73.1°F22.8°C 86% 3.1 mph NE5.0 kmh NE 8.3 mph13.4 kmh 29.88 in1011.9 mb 0.00 in0.0 mm 0.00 in0.0 mm 0.00 in0.0 mm
03:34 AM 77.6°F25.3°C 73.1°F22.8°C 86% 8.1 mph ENE13.0 kmh ENE 8.3 mph13.4 kmh 29.89 in1012.2 mb 0.00 in0.0 mm 0.00 in0.0 mm 0.00 in0.0 mm
03:29 AM 77.8°F25.4°C 73.3°F22.9°C 86% 5.4 mph SE8.7 kmh SE 7.8 mph12.6 kmh 29.89 in1012.2 mb 0.00 in0.0 mm 0.00 in0.0 mm 0.00 in0.0 mm
03:24 AM 77.8°F25.4°C 73.3°F22.9°C 86% 6.7 mph E10.8 kmh E 7.8 mph12.6 kmh 29.89 in1012.2 mb 0.00 in0.0 mm 0.00 in0.0 mm 0.00 in0.0 mm
03:19 AM 77.9°F25.5°C 73.4°F23.0°C 86% 5.0 mph ENE8.0 kmh ENE 7.8 mph12.6 kmh 29.89 in1012.2 mb 0.00 in0.0 mm 0.00 in0.0 mm 0.00 in0.0 mm
03:14 AM 77.9°F25.5°C 73.4°F23.0°C 86% 5.4 mph NNE8.7 kmh NNE 5.4 mph8.7 kmh 29.89 in1012.2 mb 0.00 in0.0 mm 0.00 in0.0 mm 0.00 in0.0 mm
03:09 AM 77.9°F25.5°C 73.4°F23.0°C 86% 2.7 mph E4.3 kmh E 7.2 mph11.6 kmh 29.89 in1012.2 mb 0.00 in0.0 mm 0.00 in0.0 mm 0.00 in0.0 mm
03:04 AM 78.1°F25.6°C 73.6°F23.1°C 86% 2.5 mph ESE4.0 kmh ESE 7.2 mph11.6 kmh 29.90 in1012.5 mb 0.00 in0.0 mm 0.00 in0.0 mm 0.00 in0.0 mm
02:59 AM 78.1°F25.6°C 73.6°F23.1°C 86% 6.9 mph SE11.1 kmh SE 7.2 mph11.6 kmh 29.89 in1012.2 mb 0.00 in0.0 mm 0.00 in0.0 mm 0.00 in0.0 mm
02:54 AM 78.1°F25.6°C 73.6°F23.1°C 86% 3.5 mph NNE5.6 kmh NNE 6.0 mph9.7 kmh 29.89 in1012.2 mb 0.00 in0.0 mm 0.00 in0.0 mm 0.00 in0.0 mm
02:49 AM 78.1°F25.6°C 73.3°F22.9°C 85% 2.5 mph ENE4.0 kmh ENE 4.0 mph6.4 kmh 29.89 in1012.2 mb 0.00 in0.0 mm 0.00 in0.0 mm 0.00 in0.0 mm
02:44 AM 78.1°F25.6°C 73.3°F22.9°C 85% 4.0 mph ENE6.4 kmh ENE 4.7 mph7.6 kmh 29.90 in1012.5 mb 0.00 in0.0 mm 0.00 in0.0 mm 0.00 in0.0 mm
02:39 AM 78.1°F25.6°C 73.3°F22.9°C 85% 4.2 mph SE6.8 kmh SE 7.6 mph12.2 kmh 29.90 in1012.5 mb 0.00 in0.0 mm 0.00 in0.0 mm 0.00 in0.0 mm
02:34 AM 78.1°F25.6°C 73.3°F22.9°C 85% 4.4 mph S7.1 kmh S 7.8 mph12.6 kmh 29.90 in1012.5 mb 0.00 in0.0 mm 0.00 in0.0 mm 0.00 in0.0 mm
02:29 AM 78.3°F25.7°C 73.4°F23.0°C 85% 7.6 mph ESE12.2 kmh ESE 7.8 mph12.6 kmh 29.90 in1012.5 mb 0.00 in0.0 mm 0.00 in0.0 mm 0.00 in0.0 mm
02:24 AM 78.5°F25.8°C 73.6°F23.1°C 85% 7.8 mph SE12.6 kmh SE 7.8 mph12.6 kmh 29.90 in1012.5 mb 0.00 in0.0 mm 0.00 in0.0 mm 0.00 in0.0 mm
02:19 AM 78.5°F25.8°C 73.6°F23.1°C 85% 4.5 mph E7.2 kmh E 4.9 mph7.9 kmh 29.90 in1012.5 mb 0.00 in0.0 mm 0.00 in0.0 mm 0.00 in0.0 mm
02:14 AM 78.5°F25.8°C 73.6°F23.1°C 85% 3.2 mph ENE5.1 kmh ENE 4.5 mph7.2 kmh 29.91 in1012.9 mb 0.00 in0.0 mm 0.00 in0.0 mm 0.00 in0.0 mm
02:09 AM 78.5°F25.8°C 73.6°F23.1°C 85% 4.5 mph SW7.2 kmh SW 8.9 mph14.3 kmh 29.91 in1012.9 mb 0.00 in0.0 mm 0.00 in0.0 mm 0.00 in0.0 mm
02:04 AM 78.5°F25.8°C 73.6°F23.1°C 85% 1.8 mph ESE2.9 kmh ESE 8.9 mph14.3 kmh 29.92 in1013.2 mb 0.00 in0.0 mm 0.00 in0.0 mm 0.00 in0.0 mm
01:59 AM 78.5°F25.8°C 73.6°F23.1°C 85% 7.5 mph ESE12.1 kmh ESE 8.9 mph14.3 kmh 29.92 in1013.2 mb 0.00 in0.0 mm 0.00 in0.0 mm 0.00 in0.0 mm
01:54 AM 78.5°F25.8°C 73.6°F23.1°C 85% 6.9 mph ESE11.1 kmh ESE 6.9 mph11.1 kmh 29.92 in1013.2 mb 0.00 in0.0 mm 0.00 in0.0 mm 0.00 in0.0 mm
01:49 AM 78.7°F25.9°C 73.8°F23.2°C 85% 4.0 mph ESE6.4 kmh ESE 6.3 mph10.1 kmh 29.92 in1013.2 mb 0.00 in0.0 mm 0.00 in0.0 mm 0.00 in0.0 mm
01:44 AM 78.7°F25.9°C 73.8°F23.2°C 85% 4.0 mph SE6.4 kmh SE 8.9 mph14.3 kmh 29.92 in1013.2 mb 0.00 in0.0 mm 0.00 in0.0 mm 0.00 in0.0 mm
01:39 AM 78.7°F25.9°C 73.8°F23.2°C 85% 5.3 mph SE8.5 kmh SE 8.9 mph14.3 kmh 29.92 in1013.2 mb 0.00 in0.0 mm 0.00 in0.0 mm 0.00 in0.0 mm
01:34 AM 78.7°F25.9°C 73.8°F23.2°C 85% 8.9 mph E14.3 kmh E 8.9 mph14.3 kmh 29.92 in1013.2 mb 0.00 in0.0 mm 0.00 in0.0 mm 0.00 in0.0 mm
01:29 AM 78.8°F26.0°C 74.0°F23.3°C 85% 4.5 mph ENE7.2 kmh ENE 6.9 mph11.1 kmh 29.92 in1013.2 mb 0.00 in0.0 mm 0.00 in0.0 mm 0.00 in0.0 mm
01:24 AM 78.8°F26.0°C 74.0°F23.3°C 85% 5.3 mph NNE8.5 kmh NNE 7.2 mph11.6 kmh 29.91 in1012.9 mb 0.00 in0.0 mm 0.00 in0.0 mm 0.00 in0.0 mm
01:19 AM 78.8°F26.0°C 73.6°F23.1°C 84% 4.6 mph ENE7.4 kmh ENE 7.2 mph11.6 kmh 29.91 in1012.9 mb 0.00 in0.0 mm 0.00 in0.0 mm 0.00 in0.0 mm
01:14 AM 78.8°F26.0°C 73.6°F23.1°C 84% 7.2 mph ESE11.6 kmh ESE 7.2 mph11.6 kmh 29.92 in1013.2 mb 0.00 in0.0 mm 0.00 in0.0 mm 0.00 in0.0 mm
01:09 AM 78.8°F26.0°C 73.6°F23.1°C 84% 5.6 mph E9.0 kmh E 6.3 mph10.1 kmh 29.92 in1013.2 mb 0.00 in0.0 mm 0.00 in0.0 mm 0.00 in0.0 mm
01:04 AM 78.8°F26.0°C 73.6°F23.1°C 84% 2.9 mph SE4.7 kmh SE 6.3 mph10.1 kmh 29.92 in1013.2 mb 0.00 in0.0 mm 0.00 in0.0 mm 0.00 in0.0 mm
12:59 AM 79.0°F26.1°C 73.8°F23.2°C 84% 4.5 mph NNW7.2 kmh NNW 5.4 mph8.7 kmh 29.92 in1013.2 mb 0.00 in0.0 mm 0.00 in0.0 mm 0.00 in0.0 mm
12:53 AM 79.0°F26.1°C 73.8°F23.2°C 84% 5.4 mph NNE8.7 kmh NNE 5.4 mph8.7 kmh 29.91 in1012.9 mb 0.00 in0.0 mm 0.00 in0.0 mm 0.00 in0.0 mm
12:48 AM 79.0°F26.1°C 73.8°F23.2°C 84% 3.5 mph E5.6 kmh E 4.9 mph7.9 kmh 29.91 in1012.9 mb 0.00 in0.0 mm 0.00 in0.0 mm 0.00 in0.0 mm
12:44 AM 79.2°F26.2°C 73.6°F23.1°C 83% 4.9 mph SSE7.9 kmh SSE 4.9 mph7.9 kmh 29.92 in1013.2 mb 0.00 in0.0 mm 0.00 in0.0 mm 0.00 in0.0 mm
12:39 AM 79.2°F26.2°C 73.6°F23.1°C 83% 4.7 mph E7.6 kmh E 4.7 mph7.6 kmh 29.92 in1013.2 mb 0.00 in0.0 mm 0.00 in0.0 mm 0.00 in0.0 mm
12:33 AM 79.2°F26.2°C 73.6°F23.1°C 83% 3.4 mph ENE5.5 kmh ENE 4.7 mph7.6 kmh 29.92 in1013.2 mb 0.00 in0.0 mm 0.00 in0.0 mm 0.00 in0.0 mm
12:28 AM 79.2°F26.2°C 73.6°F23.1°C 83% 4.1 mph E6.6 kmh E 4.7 mph7.6 kmh 29.92 in1013.2 mb 0.00 in0.0 mm 0.00 in0.0 mm 0.00 in0.0 mm
12:24 AM 79.2°F26.2°C 73.6°F23.1°C 83% 3.4 mph ESE5.5 kmh ESE 3.8 mph6.1 kmh 29.92 in1013.2 mb 0.00 in0.0 mm 0.00 in0.0 mm 0.00 in0.0 mm
12:18 AM 79.4°F26.3°C 73.8°F23.2°C 83% 3.8 mph SE6.1 kmh SE 4.3 mph6.9 kmh 29.92 in1013.2 mb 0.00 in0.0 mm 0.00 in0.0 mm 0.00 in0.0 mm
12:13 AM 79.4°F26.3°C 73.8°F23.2°C 83% 3.1 mph E5.0 kmh E 4.3 mph6.9 kmh 29.92 in1013.2 mb 0.00 in0.0 mm 0.00 in0.0 mm 0.00 in0.0 mm
12:09 AM 79.6°F26.4°C 74.0°F23.3°C 83% 3.1 mph E5.0 kmh E 4.5 mph7.2 kmh 29.92 in1013.2 mb 0.00 in0.0 mm 0.00 in0.0 mm 0.00 in0.0 mm
12:03 AM 79.6°F26.4°C 73.6°F23.1°C 82% 3.4 mph E5.5 kmh E 4.5 mph7.2 kmh 29.92 in1013.2 mb 0.00 in0.0 mm 0.00 in0.0 mm 0.00 in0.0 mm